createdAt,value
2023-04-12T00:01:21.102Z,99661
2023-04-12T00:07:13.344Z,99651
2023-04-12T00:13:02.795Z,99634
2023-04-12T00:18:56.532Z,99621
2023-04-12T00:24:50.360Z,99614
2023-04-12T00:30:43.394Z,99602
2023-04-12T00:36:41.006Z,99588
2023-04-12T00:42:38.299Z,99581
2023-04-12T00:48:34.730Z,99558
2023-04-12T00:54:27.659Z,99542
2023-04-12T01:00:20.243Z,99527
2023-04-12T01:06:14.639Z,99520
2023-04-12T01:12:11.105Z,99509
2023-04-12T01:18:11.594Z,99488
2023-04-12T01:24:11.451Z,99485
2023-04-12T01:30:12.576Z,99473
2023-04-12T01:36:13.348Z,99455
2023-04-12T01:42:09.985Z,99438
2023-04-12T01:48:10.478Z,99425
2023-04-12T01:54:25.316Z,99418
2023-04-12T02:00:31.625Z,99405
2023-04-12T02:06:27.077Z,99375
2023-04-12T02:12:20.392Z,99359
2023-04-12T02:18:27.726Z,99358
2023-04-12T02:24:43.090Z,99346
2023-04-12T02:30:45.532Z,99336
2023-04-12T02:36:44.912Z,99320
2023-04-12T02:42:53.930Z,99314
2023-04-12T02:48:49.040Z,99295
2023-04-12T02:54:41.029Z,99273
2023-04-12T03:00:39.571Z,99262
2023-04-12T03:06:42.389Z,99254
2023-04-12T03:12:44.608Z,99238
2023-04-12T03:18:39.896Z,99220
2023-04-12T03:24:35.179Z,99203
2023-04-12T03:30:28.377Z,99180
2023-04-12T07:26:22.656Z,98780
2023-04-12T08:02:11.421Z,98730
2023-04-12T09:45:46.609Z,98645
2023-04-12T09:51:39.639Z,98653
2023-04-12T10:03:47.398Z,98633
2023-04-12T10:09:57.371Z,98625
2023-04-12T11:44:55.600Z,98648
2023-04-12T12:40:40.152Z,98627
2023-04-12T13:11:07.355Z,98635
2023-04-12T13:17:02.451Z,98632
2023-04-12T13:23:07.808Z,98645
2023-04-12T13:29:05.565Z,98650
2023-04-12T13:35:04.946Z,98638
2023-04-12T13:40:58.412Z,98627
2023-04-12T13:47:03.164Z,98616
2023-04-12T13:54:31.384Z,98610
2023-04-12T14:00:40.657Z,98614
2023-04-12T14:06:54.295Z,98615
2023-04-12T14:12:46.491Z,98615
2023-04-12T14:18:39.244Z,98617
2023-04-12T14:24:34.590Z,98614
2023-04-12T14:30:34.888Z,98627
2023-04-12T14:36:34.980Z,98631
2023-04-12T14:42:33.495Z,98620
2023-04-12T14:48:31.321Z,98617
2023-04-12T14:54:25.399Z,98601
2023-04-12T15:00:21.622Z,98600
2023-04-12T15:06:29.933Z,98602
2023-04-12T15:26:12.159Z,98608
2023-04-12T15:38:26.290Z,98692
2023-04-12T16:14:58.234Z,98755
2023-04-12T16:20:48.406Z,98748
2023-04-12T16:32:51.374Z,98798
2023-04-12T16:44:41.818Z,98841
2023-04-12T16:57:14.860Z,98821
2023-04-12T17:03:09.463Z,98825
2023-04-12T17:09:20.724Z,98822
2023-04-12T17:15:13.390Z,98839
2023-04-12T17:21:11.534Z,98825
2023-04-12T17:27:05.163Z,98823
2023-04-12T17:33:01.694Z,98812
2023-04-12T17:38:54.448Z,98820
2023-04-12T17:44:48.807Z,98824
2023-04-12T17:50:41.786Z,98829
2023-04-12T17:56:34.587Z,98826
2023-04-12T18:02:30.149Z,98837
2023-04-12T18:08:23.993Z,98842
2023-04-12T18:14:46.982Z,98848
2023-04-12T18:20:40.739Z,98849
2023-04-12T18:26:35.581Z,98843
2023-04-12T18:32:43.329Z,98848
2023-04-12T18:44:42.794Z,98872
2023-04-12T18:50:34.786Z,98873
2023-04-12T18:56:47.415Z,98865
2023-04-12T19:02:39.053Z,98869
2023-04-12T19:08:36.658Z,98864
2023-04-12T19:26:59.306Z,98870
2023-04-12T19:33:04.932Z,98872
2023-04-12T19:39:03.625Z,98875
2023-04-12T19:45:33.694Z,98878
2023-04-12T19:51:35.551Z,98880
2023-04-12T19:57:46.463Z,98895
2023-04-12T20:03:42.286Z,98896
2023-04-12T20:09:33.360Z,98881
2023-04-12T20:15:25.710Z,98886
2023-04-12T20:21:43.740Z,98895
2023-04-12T20:27:56.017Z,98896
2023-04-12T20:40:37.178Z,98897
2023-04-12T20:47:03.200Z,98908
2023-04-12T21:05:18.685Z,98902
2023-04-12T23:17:19.783Z,98831
2023-04-12T23:23:41.464Z,98835
2023-04-12T23:30:05.587Z,98830
2023-04-12T23:36:32.635Z,98822
2023-04-12T23:49:03.066Z,98830
